Time;durP1;ratioP1;P1;durP2;ratioP2;P2;SDS_P1;SDS_P2;PMS_P1;PMS_P2;Temp;Humidity;BMP_temperature;BMP_pressure;BME280_temperature;BME280_humidity;BME280_pressure;Samples;Min_cycle;Max_cycle;Signal;HPM_P1;HPM_P2
2021/03/10 00:02:22;;;;;;;17.30;15.40;;;;;;;0.87;53.19;100304.25;10415437;28;20041;-64
2021/03/10 00:07:38;;;;;;;17.15;15.43;;;;;;;0.68;53.43;100314.38;10415954;28;20041;-65
2021/03/10 00:12:40;;;;;;;16.77;14.80;;;;;;;1.16;52.71;100309.78;10415397;28;20403;-64
2021/03/10 00:17:43;;;;;;;16.88;15.18;;;;;;;1.00;53.68;100303.53;10416137;28;20495;-63
2021/03/10 00:22:45;;;;;;;17.52;15.63;;;;;;;0.90;53.36;100317.25;10415114;28;20676;-62
2021/03/10 00:27:46;;;;;;;16.95;15.15;;;;;;;0.74;54.02;100309.28;10413547;28;20072;-64
2021/03/10 01:40:44;;;;;;;18.45;16.35;;;;;;;0.06;56.16;100291.13;10422548;28;20037;-65
2021/03/10 01:45:45;;;;;;;23.23;17.58;;;;;;;-0.12;56.88;100290.84;10422723;28;20072;-66
2021/03/10 01:56:18;;;;;;;22.38;17.75;;;;;;;-0.22;57.39;100288.94;10383601;28;20057;-68
2021/03/10 02:01:20;;;;;;;24.75;18.13;;;;;;;-0.37;57.69;100279.25;10386020;28;20049;-68
2021/03/10 02:06:36;;;;;;;21.80;17.98;;;;;;;-0.31;57.63;100277.66;10384518;28;20496;-68
2021/03/10 02:11:42;;;;;;;19.33;17.38;;;;;;;-0.39;57.90;100280.94;10382137;28;20112;-68
2021/03/10 02:16:56;;;;;;;23.65;18.25;;;;;;;-0.39;57.75;100281.81;10382768;28;20538;-69
2021/03/10 02:22:07;;;;;;;20.40;17.02;;;;;;;-0.38;57.66;100273.22;10382401;28;20037;-70
2021/03/10 02:27:31;;;;;;;19.90;17.88;;;;;;;-0.32;57.73;100277.59;10366603;28;20089;-70
2021/03/10 02:32:37;;;;;;;21.80;18.90;;;;;;;-0.36;57.89;100271.50;10364101;28;20046;-68
2021/03/10 02:37:42;;;;;;;19.48;17.45;;;;;;;-0.43;58.11;100274.88;10382613;28;20443;-69
2021/03/10 02:42:45;;;;;;;21.35;19.13;;;;;;;-0.44;58.25;100278.28;10383774;28;20458;-67
2021/03/10 02:47:47;;;;;;;19.83;17.00;;;;;;;-0.31;58.09;100277.66;10382673;28;20500;-68
2021/03/10 02:52:49;;;;;;;21.90;18.52;;;;;;;-0.31;57.80;100276.75;10381239;28;20121;-68
2021/03/10 02:57:51;;;;;;;24.55;18.83;;;;;;;-0.34;57.86;100279.31;10363482;28;20069;-69
2021/03/10 03:02:53;;;;;;;20.75;18.55;;;;;;;-0.32;57.92;100281.06;10381683;28;20068;-69
2021/03/10 03:07:55;;;;;;;21.77;18.90;;;;;;;-0.31;58.40;100284.50;10381594;28;20073;-68
2021/03/10 03:12:57;;;;;;;21.30;18.23;;;;;;;-0.40;59.12;100268.84;10382393;28;20385;-68
2021/03/10 03:18:01;;;;;;;23.42;17.67;;;;;;;-0.50;59.13;100280.75;10363702;28;20046;-67
2021/03/10 03:23:05;;;;;;;20.13;18.02;;;;;;;-0.51;59.48;100277.31;10382798;28;20046;-68
2021/03/10 03:28:11;;;;;;;21.25;17.60;;;;;;;-0.50;60.25;100283.34;10372927;28;20450;-69
2021/03/10 03:33:17;;;;;;;22.75;18.85;;;;;;;-0.54;60.74;100281.53;10378960;28;20049;-68
2021/03/10 03:38:24;;;;;;;27.53;18.80;;;;;;;-0.57;60.46;100284.97;10379024;28;20092;-67
2021/03/10 03:43:27;;;;;;;19.37;17.47;;;;;;;-0.71;61.00;100281.25;10362637;28;20455;-67
2021/03/10 03:48:30;;;;;;;20.45;18.35;;;;;;;-0.84;61.28;100289.63;10379941;28;20355;-70
2021/03/10 03:53:32;;;;;;;27.05;19.98;;;;;;;-0.85;60.83;100282.72;10381198;28;20085;-69
2021/03/10 03:58:33;;;;;;;24.02;19.63;;;;;;;-0.86;60.88;100283.56;10380540;28;20038;-68
2021/03/10 04:03:34;;;;;;;27.02;19.25;;;;;;;-0.88;60.54;100286.13;10381013;28;20164;-70
2021/03/10 04:08:35;;;;;;;27.85;19.42;;;;;;;-0.86;60.32;100294.75;10380590;28;20053;-69
2021/03/10 04:13:37;;;;;;;27.00;19.48;;;;;;;-0.88;61.08;100296.47;10379018;28;20058;-67
2021/03/10 04:18:39;;;;;;;23.45;18.90;;;;;;;-0.95;61.63;100294.59;10378759;28;20113;-68
2021/03/10 04:23:40;;;;;;;22.70;18.85;;;;;;;-1.08;61.56;100298.63;10378324;28;20042;-69
2021/03/10 04:28:41;;;;;;;25.10;20.65;;;;;;;-0.98;61.90;100298.81;10377679;28;20100;-69
2021/03/10 04:33:43;;;;;;;21.92;19.40;;;;;;;-0.89;62.08;100310.19;10378493;28;20053;-68
2021/03/10 04:38:44;;;;;;;27.33;19.85;;;;;;;-0.82;62.49;100309.47;10378473;28;20100;-68
2021/03/10 04:43:46;;;;;;;22.08;19.73;;;;;;;-0.69;62.15;100313.13;10377139;28;20050;-68
2021/03/10 04:48:47;;;;;;;30.88;19.65;;;;;;;-0.57;61.58;100313.38;10382032;28;20042;-67
2021/03/10 04:53:48;;;;;;;22.00;18.27;;;;;;;-0.49;61.27;100322.94;10383873;28;20414;-67
2021/03/10 04:58:49;;;;;;;35.53;21.17;;;;;;;-0.44;61.05;100323.88;10383976;28;20046;-67
2021/03/10 05:03:50;;;;;;;28.30;19.55;;;;;;;-0.41;60.40;100326.53;10365907;28;20097;-66
2021/03/10 05:08:52;;;;;;;29.55;19.85;;;;;;;-0.64;61.11;100334.75;10383218;28;20042;-68
2021/03/10 05:13:53;;;;;;;28.45;20.63;;;;;;;-0.59;61.74;100335.69;10383995;28;20104;-67
2021/03/10 05:18:54;;;;;;;35.28;20.10;;;;;;;-0.48;61.30;100333.31;10385008;28;20480;-67
2021/03/10 05:23:56;;;;;;;32.67;20.15;;;;;;;-0.56;61.09;100334.88;10382784;28;20213;-69
2021/03/10 05:28:57;;;;;;;27.48;19.65;;;;;;;-0.56;60.75;100342.63;10383832;28;20066;-67
2021/03/10 05:33:58;;;;;;;22.85;19.45;;;;;;;-0.62;60.74;100342.50;10384216;28;20052;-69
2021/03/10 05:38:59;;;;;;;30.63;19.85;;;;;;;-0.53;61.17;100356.47;10384885;28;20046;-67
2021/03/10 05:44:01;;;;;;;27.98;19.88;;;;;;;-0.56;61.17;100355.53;10385180;28;20050;-69
2021/03/10 05:49:03;;;;;;;21.45;18.40;;;;;;;-0.63;61.55;100357.13;10384058;28;20057;-69
2021/03/10 05:54:05;;;;;;;24.25;19.52;;;;;;;-0.61;61.76;100360.63;10383968;28;20583;-69
2021/03/10 05:59:06;;;;;;;22.77;19.15;;;;;;;-0.54;61.55;100356.44;10382253;28;20113;-68
2021/03/10 06:04:08;;;;;;;22.42;18.88;;;;;;;-0.58;61.65;100362.38;10381423;28;20112;-67
2021/03/10 06:09:13;;;;;;;23.90;18.88;;;;;;;-0.47;61.51;100372.91;10382715;28;20042;-68
2021/03/10 06:14:15;;;;;;;22.25;18.75;;;;;;;-0.40;61.10;100377.34;10381425;28;20053;-67
2021/03/10 06:19:17;;;;;;;30.08;19.48;;;;;;;-0.19;60.76;100372.53;10365411;28;20038;-69
2021/03/10 06:24:18;;;;;;;28.42;20.65;;;;;;;0.09;59.48;100373.00;10381001;28;20128;-67
2021/03/10 06:29:20;;;;;;;29.17;20.65;;;;;;;0.34;58.81;100374.25;10381313;28;20038;-67
2021/03/10 06:34:21;;;;;;;25.13;20.30;;;;;;;0.44;58.11;100379.59;10381462;28;20049;-68
2021/03/10 06:39:30;;;;;;;26.48;20.48;;;;;;;0.61;58.01;100390.16;10381438;28;20565;-67
2021/03/10 06:44:32;;;;;;;32.50;21.52;;;;;;;1.31;56.70;100381.56;10381171;28;20507;-67
2021/03/10 06:49:34;;;;;;;27.67;21.13;;;;;;;2.00;54.94;100377.94;10380299;28;20060;-68
2021/03/10 06:54:36;;;;;;;29.92;20.33;;;;;;;2.82;53.09;100374.16;10391946;28;20069;-68
2021/03/10 06:59:44;;;;;;;20.88;18.30;;;;;;;3.79;50.82;100377.06;10421792;28;20572;-68
2021/03/10 07:04:49;;;;;;;23.67;19.38;;;;;;;4.89;48.67;100370.03;10420373;28;20129;-68
2021/03/10 07:09:51;;;;;;;25.83;18.58;;;;;;;4.79;46.93;100377.00;10402466;28;20092;-68
2021/03/10 07:14:53;;;;;;;32.20;19.30;;;;;;;4.86;47.49;100383.91;10420057;28;20499;-66
2021/03/10 07:19:54;;;;;;;18.05;16.05;;;;;;;4.46;47.06;100389.19;10420203;28;20446;-67
2021/03/10 07:25:13;;;;;;;17.52;15.68;;;;;;;4.50;45.30;100396.13;10419660;28;20129;-67
2021/03/10 07:30:14;;;;;;;17.75;15.60;;;;;;;4.18;47.00;100397.91;10420877;28;20041;-65
2021/03/10 07:35:16;;;;;;;17.63;15.80;;;;;;;4.37;46.02;100410.03;10420999;28;20128;-67
2021/03/10 07:40:19;;;;;;;16.58;14.88;;;;;;;4.45;46.60;100410.03;10401920;28;20045;-68
2021/03/10 07:45:26;;;;;;;15.55;14.07;;;;;;;4.76;45.28;100427.34;10417982;28;20057;-68
2021/03/10 07:50:43;;;;;;;18.08;16.30;;;;;;;5.03;45.08;100417.72;10419637;28;20128;-68
2021/03/10 07:55:46;;;;;;;19.00;16.07;;;;;;;5.56;43.57;100422.72;10419550;22;20518;-66
2021/03/10 08:00:47;;;;;;;15.85;14.45;;;;;;;5.93;43.06;100419.94;10371487;28;20050;-64
2021/03/10 08:06:04;;;;;;;17.52;15.80;;;;;;;7.64;39.23;100419.94;10435586;28;20053;-64
2021/03/10 08:11:07;;;;;;;;;;;;;;;9.19;38.35;100417.38;10435961;28;20075;-64
2021/03/10 08:16:11;;;;;;;19.15;16.10;;;;;;;7.95;38.98;100435.22;10457797;28;19920;-65
2021/03/10 08:21:16;;;;;;;18.20;16.35;;;;;;;5.67;43.23;100435.72;10404603;28;20068;-65
2021/03/10 08:26:18;;;;;;;22.42;16.77;;;;;;;6.86;41.78;100433.94;10413626;28;20059;-65
2021/03/10 08:31:19;;;;;;;17.35;15.85;;;;;;;7.70;40.52;100414.63;10414892;28;20042;-65
2021/03/10 08:36:33;;;;;;;19.38;16.77;;;;;;;9.44;36.93;100412.50;10413356;28;20040;-64
2021/03/10 08:41:46;;;;;;;19.42;17.58;;;;;;;10.41;36.09;100409.41;10415240;28;20099;-66
2021/03/10 08:46:48;;;;;;;18.10;16.55;;;;;;;10.38;36.24;100400.72;10414420;28;20080;-64
2021/03/10 08:52:03;;;;;;;19.38;17.33;;;;;;;11.19;34.69;100406.44;10414450;28;20034;-65
2021/03/10 08:57:05;;;;;;;25.23;18.67;;;;;;;9.67;37.45;100412.00;10406458;28;20049;-64
2021/03/10 09:02:06;;;;;;;20.33;18.42;;;;;;;10.35;36.01;100399.91;10414026;28;20124;-64
2021/03/10 09:07:08;;;;;;;19.88;18.13;;;;;;;10.49;36.02;100389.06;10396309;28;20507;-64
2021/03/10 09:12:10;;;;;;;20.10;18.23;;;;;;;11.19;35.48;100406.44;10396469;28;20045;-65
2021/03/10 09:17:16;;;;;;;;;;;;;;;10.90;35.35;100400.25;10397801;28;20049;-65
2021/03/10 09:22:23;;;;;;;19.73;17.83;;;;;;;10.82;36.17;100403.06;10413688;28;20425;-64
2021/03/10 09:27:42;;;;;;;20.73;18.73;;;;;;;9.88;36.73;100394.91;10395694;28;20045;-64
2021/03/10 09:32:46;;;;;;;21.38;18.73;;;;;;;8.43;40.08;100399.56;10415423;28;20054;-64
2021/03/10 09:37:58;;;;;;;18.67;16.85;;;;;;;8.69;39.03;100399.09;10402231;28;20479;-63
2021/03/10 09:43:03;;;;;;;22.48;20.33;;;;;;;7.74;40.34;100389.28;10402127;28;20053;-63
2021/03/10 09:48:11;;;;;;;19.92;17.50;;;;;;;8.11;39.93;100400.06;10401228;28;20091;-64
2021/03/10 09:53:25;;;;;;;19.83;17.98;;;;;;;8.14;39.84;100400.00;10402506;28;20049;-64
2021/03/10 09:58:57;;;;;;;17.75;16.17;;;;;;;7.56;39.89;100411.31;10402611;28;20042;-64
2021/03/10 10:04:10;;;;;;;17.73;16.23;;;;;;;7.85;40.86;100410.94;10401900;28;20053;-65
2021/03/10 10:09:12;;;;;;;16.47;15.07;;;;;;;8.31;39.35;100412.81;10414391;28;20132;-64
2021/03/10 10:14:13;;;;;;;15.57;14.02;;;;;;;8.91;37.64;100398.72;10442488;28;20290;-64
2021/03/10 10:19:15;;;;;;;15.70;14.27;;;;;;;8.61;38.55;100401.00;10442040;28;20414;-64
2021/03/10 10:24:18;;;;;;;14.55;13.18;;;;;;;8.67;38.11;100402.63;10434187;28;20483;-64
2021/03/10 10:29:20;;;;;;;16.90;14.38;;;;;;;8.21;38.46;100396.41;10364883;28;20045;-65
2021/03/10 10:34:24;;;;;;;15.68;14.38;;;;;;;9.36;37.25;100391.66;10360887;28;20581;-66
2021/03/10 10:39:26;;;;;;;15.40;14.10;;;;;;;9.09;38.79;100388.72;10359638;28;20046;-64
2021/03/10 10:44:28;;;;;;;15.20;13.82;;;;;;;9.94;37.78;100392.13;10358599;28;20053;-64
2021/03/10 10:49:29;;;;;;;16.52;14.07;;;;;;;9.69;37.41;100389.19;10376950;28;20037;-64
2021/03/10 10:54:31;;;;;;;15.65;14.35;;;;;;;9.42;37.23;100386.28;10376546;28;20046;-65
2021/03/10 10:59:34;;;;;;;16.60;15.00;;;;;;;10.18;37.20;100378.44;10376725;28;20064;-64
2021/03/10 11:04:41;;;;;;;15.90;14.60;;;;;;;9.41;37.21;100396.81;10359916;28;20507;-65
2021/03/10 11:09:45;;;;;;;16.33;15.02;;;;;;;9.85;37.88;100378.31;10360797;28;20144;-65
2021/03/10 11:14:51;;;;;;;15.93;14.63;;;;;;;10.24;37.86;100367.78;10371860;28;20045;-68
2021/03/10 11:20:07;;;;;;;16.58;14.98;;;;;;;9.89;37.22;100376.47;10401407;28;20042;-65
2021/03/10 11:25:11;;;;;;;17.17;15.73;;;;;;;9.46;37.73;100385.31;10400003;28;20539;-65
2021/03/10 11:30:14;;;;;;;18.13;16.42;;;;;;;9.26;38.48;100384.91;10416005;28;20056;-66
2021/03/10 11:35:21;;;;;;;16.75;15.40;;;;;;;10.33;37.90;100367.56;10416090;28;20050;-65
2021/03/10 11:40:23;;;;;;;16.65;15.25;;;;;;;11.19;39.29;100364.34;10397637;28;20046;-66
2021/03/10 11:45:25;;;;;;;18.40;16.77;;;;;;;10.89;35.72;100351.19;10415900;28;20071;-66
2021/03/10 11:50:27;;;;;;;16.73;15.13;;;;;;;10.98;37.37;100337.75;10416427;28;20033;-65
2021/03/10 11:55:28;;;;;;;16.60;14.55;;;;;;;10.70;36.03;100339.44;10415959;28;20049;-66
2021/03/10 12:00:29;;;;;;;15.95;14.65;;;;;;;10.39;37.19;100356.00;10416474;28;20059;-65
2021/03/10 12:05:37;;;;;;;15.10;13.90;;;;;;;10.31;37.35;100347.47;10397959;28;20061;-64
2021/03/10 12:10:40;;;;;;;16.77;15.38;;;;;;;10.09;36.84;100336.59;10415755;28;20073;-64
2021/03/10 12:15:41;;;;;;;16.23;15.05;;;;;;;9.74;38.58;100330.47;10415384;28;20043;-65
2021/03/10 12:20:43;;;;;;;24.30;17.73;;;;;;;9.35;38.05;100319.97;10415406;28;20503;-65
2021/03/10 12:25:45;;;;;;;16.08;14.50;;;;;;;9.19;38.66;100312.47;10415477;28;20051;-65
2021/03/10 12:30:46;;;;;;;17.52;16.20;;;;;;;9.10;38.86;100311.75;10415516;28;20041;-66
2021/03/10 12:35:48;;;;;;;15.75;14.63;;;;;;;8.65;41.49;100325.81;10397422;28;20042;-65
2021/03/10 12:40:49;;;;;;;14.75;13.55;;;;;;;9.22;40.11;100310.63;10414253;28;20119;-65
2021/03/10 12:45:50;;;;;;;15.25;14.05;;;;;;;9.38;39.92;100311.16;10415259;28;20050;-65
2021/03/10 12:50:52;;;;;;;16.58;14.80;;;;;;;8.85;39.33;100305.28;10414876;28;20037;-65
2021/03/10 12:55:53;;;;;;;15.38;13.98;;;;;;;8.90;40.15;100299.94;10414719;28;20037;-66
2021/03/10 13:00:55;;;;;;;15.48;14.23;;;;;;;8.68;40.43;100304.78;10415668;28;20439;-65
2021/03/10 13:05:56;;;;;;;15.02;13.63;;;;;;;8.40;41.17;100302.69;10414144;28;20041;-65
2021/03/10 13:10:57;;;;;;;14.82;13.63;;;;;;;8.50;41.28;100299.00;10421963;28;20049;-66
2021/03/10 13:15:58;;;;;;;16.17;14.70;;;;;;;8.50;42.62;100301.63;10421733;28;20495;-65
2021/03/10 13:21:00;;;;;;;15.23;13.95;;;;;;;8.07;45.98;100306.75;10421723;28;20049;-65
2021/03/10 13:26:01;;;;;;;14.73;13.52;;;;;;;8.25;45.40;100305.56;10421522;28;20049;-65
2021/03/10 13:31:03;;;;;;;14.68;13.50;;;;;;;7.98;44.98;100309.53;10421359;28;20097;-64
2021/03/10 13:36:05;;;;;;;15.60;14.20;;;;;;;8.13;43.94;100308.38;10420968;28;20041;-64
2021/03/10 13:41:06;;;;;;;15.25;14.05;;;;;;;8.06;44.40;100300.66;10420586;28;20045;-64
2021/03/10 13:46:07;;;;;;;15.90;14.27;;;;;;;8.26;44.75;100296.81;10420374;28;20048;-64
2021/03/10 13:51:09;;;;;;;14.73;13.40;;;;;;;8.29;45.03;100294.13;10420713;28;20038;-64
2021/03/10 13:56:10;;;;;;;14.15;12.95;;;;;;;8.37;43.51;100297.53;10489857;23;20123;-77
2021/03/10 14:01:12;;;;;;;12.38;11.45;;;;;;;8.09;43.05;100297.97;10507327;28;20040;-77
2021/03/10 14:06:13;;;;;;;13.95;12.85;;;;;;;7.95;43.67;100301.72;10510717;28;20115;-78
2021/03/10 14:11:14;;;;;;;14.02;12.88;;;;;;;8.01;43.10;100285.88;10501985;28;20489;-78
2021/03/10 14:16:16;;;;;;;14.85;13.75;;;;;;;7.88;43.15;100287.88;10500465;28;20451;-78
2021/03/10 14:21:17;;;;;;;15.40;14.10;;;;;;;7.69;43.35;100286.44;10476398;28;20045;-79
2021/03/10 14:26:19;;;;;;;14.73;13.35;;;;;;;7.51;43.62;100284.97;10517339;28;20124;-80
2021/03/10 14:31:20;;;;;;;15.75;13.88;;;;;;;7.26;44.53;100280.13;10515515;28;20068;-79
2021/03/10 14:36:22;;;;;;;14.77;13.48;;;;;;;7.34;45.15;100270.38;10516191;28;20040;-78
2021/03/10 14:41:23;;;;;;;14.73;13.35;;;;;;;7.62;43.34;100284.81;10515391;28;20066;-79
2021/03/10 14:46:25;;;;;;;14.60;13.15;;;;;;;7.10;44.68;100275.13;10488607;28;20040;-79
2021/03/10 14:51:27;;;;;;;13.52;12.32;;;;;;;7.36;45.03;100275.59;10463080;28;20049;-79
2021/03/10 14:56:30;;;;;;;13.95;12.75;;;;;;;7.48;43.68;100270.19;10496853;28;20052;-78
2021/03/10 15:01:32;;;;;;;13.98;12.88;;;;;;;7.27;44.62;100274.00;10473944;28;20075;-78
2021/03/10 15:06:39;;;;;;;13.15;11.88;;;;;;;7.04;44.53;100282.16;10459603;28;20063;-79
2021/03/10 15:11:40;;;;;;;15.15;11.35;;;;;;;7.22;45.03;100281.03;10477591;28;20045;-79
2021/03/10 15:16:42;;;;;;;10.13;9.43;;;;;;;7.28;43.56;100277.47;10468029;28;20057;-79
2021/03/10 15:21:43;;;;;;;12.18;11.18;;;;;;;7.25;44.78;100283.59;10495090;28;20064;-79
2021/03/10 15:26:45;;;;;;;12.23;11.13;;;;;;;7.61;43.53;100272.59;10499778;28;20052;-79
2021/03/10 15:31:46;;;;;;;14.32;12.70;;;;;;;7.44;44.12;100262.44;10503600;28;20045;-79
2021/03/10 15:36:50;;;;;;;13.55;12.38;;;;;;;7.34;44.65;100259.06;10508821;28;20044;-79
2021/03/10 15:41:51;;;;;;;13.00;11.95;;;;;;;7.38;44.47;100263.34;10508389;28;20094;-77
2021/03/10 15:46:52;;;;;;;12.90;11.80;;;;;;;6.80;46.23;100246.75;10509246;28;20040;-77
2021/03/10 15:51:54;;;;;;;12.88;11.80;;;;;;;6.93;46.21;100251.81;10492873;28;20078;-79
2021/03/10 15:56:55;;;;;;;13.20;12.07;;;;;;;7.12;46.33;100245.44;10509172;28;20151;-77
2021/03/10 16:01:57;;;;;;;12.90;11.80;;;;;;;7.23;45.77;100243.53;10528086;28;20051;-81
2021/03/10 16:06:58;;;;;;;13.55;12.35;;;;;;;6.82;47.44;100247.59;10526899;28;20052;-81
2021/03/10 16:11:59;;;;;;;13.00;11.90;;;;;;;6.86;47.39;100240.56;10506952;28;20099;-83
2021/03/10 16:17:01;;;;;;;13.02;11.95;;;;;;;7.06;46.81;100232.47;10534740;28;20044;-79
2021/03/10 16:22:03;;;;;;;12.77;11.77;;;;;;;6.98;47.02;100236.94;10519390;28;20044;-81
2021/03/10 16:27:04;;;;;;;13.23;12.13;;;;;;;6.99;47.26;100238.66;10518997;28;20063;-80
2021/03/10 16:32:06;;;;;;;12.50;11.57;;;;;;;6.80;47.38;100241.50;10534374;28;20036;-79
2021/03/10 16:37:07;;;;;;;18.27;16.58;;;;;;;6.78;47.72;100237.22;10534053;28;20044;-80
2021/03/10 16:42:09;;;;;;;16.45;15.05;;;;;;;6.46;48.75;100243.72;10546044;28;20049;-79
2021/03/10 16:47:11;;;;;;;17.50;16.00;;;;;;;6.36;49.05;100234.22;10550551;28;20032;-80
2021/03/10 16:52:12;;;;;;;17.33;15.82;;;;;;;6.10;50.03;100241.47;10530653;28;20039;-80
2021/03/10 16:57:14;;;;;;;17.30;15.85;;;;;;;6.29;49.54;100241.28;10515026;28;20108;-83
2021/03/10 17:02:28;;;;;;;17.83;16.33;;;;;;;6.14;50.26;100241.44;10508797;28;20049;-79
2021/03/10 17:07:35;;;;;;;19.88;17.92;;;;;;;6.05;50.66;100242.38;10514625;28;20044;-80
2021/03/10 17:12:38;;;;;;;19.95;17.98;;;;;;;6.00;50.44;100235.50;10547079;28;20028;-79
2021/03/10 17:17:40;;;;;;;19.27;17.67;;;;;;;6.14;50.25;100237.94;10532703;28;20105;-80
2021/03/10 17:22:42;;;;;;;23.42;17.85;;;;;;;6.07;50.51;100234.56;10534723;28;20036;-79
2021/03/10 17:27:43;;;;;;;19.42;17.60;;;;;;;6.03;50.59;100236.31;10531792;28;20067;-80
2021/03/10 17:32:44;;;;;;;20.65;17.77;;;;;;;5.97;51.36;100244.19;10496927;28;20048;-80
2021/03/10 17:37:47;;;;;;;21.17;19.33;;;;;;;5.87;51.19;100244.28;10547683;28;20036;-80
2021/03/10 17:42:51;;;;;;;20.48;17.77;;;;;;;5.78;51.45;100253.06;10550760;28;20049;-80
2021/03/10 17:47:52;;;;;;;20.08;18.20;;;;;;;5.84;51.45;100260.81;10548905;28;20036;-80
2021/03/10 17:52:54;;;;;;;20.65;18.40;;;;;;;5.65;51.98;100254.91;10537068;28;20048;-80
2021/03/10 17:58:02;;;;;;;24.58;21.88;;;;;;;5.54;52.06;100265.44;10554862;28;20028;-81
2021/03/10 18:03:03;;;;;;;22.40;20.10;;;;;;;5.36;52.67;100259.44;10549875;28;20044;-81
2021/03/10 18:08:05;;;;;;;21.92;19.88;;;;;;;5.02;53.20;100254.47;10525509;28;20064;-81
2021/03/10 18:13:07;;;;;;;25.25;21.88;;;;;;;5.00;53.54;100253.59;10527226;28;20067;-81
2021/03/10 18:18:08;;;;;;;22.90;20.25;;;;;;;5.05;53.60;100254.47;10539116;28;20044;-80
2021/03/10 18:23:10;;;;;;;23.10;20.98;;;;;;;4.91;53.85;100264.06;10506534;28;20044;-81
2021/03/10 18:28:11;;;;;;;22.73;20.45;;;;;;;4.57;55.06;100274.66;10537162;28;20064;-81
2021/03/10 18:33:12;;;;;;;20.15;18.45;;;;;;;4.56;54.14;100262.50;10526471;28;20108;-81
2021/03/10 18:38:16;;;;;;;19.45;17.65;;;;;;;4.26;54.74;100253.91;10542551;28;20055;-81
2021/03/10 18:43:21;;;;;;;20.58;18.55;;;;;;;4.01;55.46;100260.91;10547807;28;20040;-82
2021/03/10 18:48:23;;;;;;;19.60;17.42;;;;;;;3.99;55.61;100254.84;10525984;28;20084;-83
2021/03/10 18:53:24;;;;;;;22.27;19.42;;;;;;;4.02;55.72;100254.81;10544322;28;20513;-82
2021/03/10 18:58:26;;;;;;;20.42;18.40;;;;;;;4.12;55.36;100241.78;10538048;28;20040;-82
2021/03/10 19:03:28;;;;;;;19.33;17.63;;;;;;;4.37;54.91;100251.28;10538221;28;20041;-83
2021/03/10 19:08:29;;;;;;;18.35;16.75;;;;;;;4.21;54.92;100241.81;10536924;28;20059;-83
2021/03/10 19:13:31;;;;;;;19.55;17.65;;;;;;;4.14;55.05;100238.34;10543914;28;20067;-82
2021/03/10 19:18:32;;;;;;;21.65;19.13;;;;;;;4.19;54.98;100235.72;10525893;28;20053;-83
2021/03/10 19:23:34;;;;;;;21.55;19.45;;;;;;;3.82;55.79;100233.19;10546043;28;20051;-81
2021/03/10 19:28:36;;;;;;;23.73;21.25;;;;;;;4.00;55.84;100220.16;10545079;28;20070;-82
2021/03/10 19:33:37;;;;;;;36.95;25.05;;;;;;;3.85;56.81;100229.72;10546716;28;20024;-83
2021/03/10 19:38:39;;;;;;;35.22;25.48;;;;;;;4.00;56.76;100220.16;10547100;28;20104;-82
2021/03/10 19:43:40;;;;;;;38.72;27.40;;;;;;;3.94;57.00;100208.88;10546827;28;20051;-82
2021/03/10 19:48:41;;;;;;;36.85;26.15;;;;;;;3.89;57.28;100205.44;10547141;28;20060;-81
2021/03/10 19:53:43;;;;;;;40.35;27.73;;;;;;;3.67;57.74;100202.84;10540226;28;20405;-80
2021/03/10 19:58:44;;;;;;;37.85;28.65;;;;;;;3.67;58.74;100204.59;10526024;28;20517;-81
2021/03/10 20:03:45;;;;;;;40.90;27.00;;;;;;;3.77;58.32;100202.00;10507110;28;20048;-81
2021/03/10 20:08:46;;;;;;;44.40;29.05;;;;;;;3.42;58.67;100186.44;10522900;28;20071;-83
2021/03/10 20:13:48;;;;;;;44.75;29.33;;;;;;;3.36;59.53;100178.63;10502954;28;20059;-82
2021/03/10 20:18:49;;;;;;;40.13;29.02;;;;;;;3.32;59.40;100182.13;10521580;28;20147;-83
2021/03/10 20:23:50;;;;;;;42.47;27.60;;;;;;;3.14;59.84;100169.97;10521912;28;20049;-82
2021/03/10 20:28:51;;;;;;;42.33;28.38;;;;;;;2.89;60.31;100163.91;10506329;28;20143;-84
2021/03/10 20:33:53;;;;;;;44.28;30.33;;;;;;;2.78;61.02;100161.25;10523385;28;20037;-84
2021/03/10 20:38:54;;;;;;;46.50;30.58;;;;;;;2.70;61.10;100157.81;10506176;28;20058;-83
2021/03/10 20:43:56;;;;;;;40.17;28.70;;;;;;;2.57;61.30;100152.56;10522992;28;20048;-81
2021/03/10 20:48:57;;;;;;;50.65;31.50;;;;;;;2.53;61.71;100144.78;10525550;28;20045;-82
2021/03/10 20:53:58;;;;;;;51.35;33.63;;;;;;;2.61;61.85;100136.13;10546458;28;20074;-82
2021/03/10 20:59:00;;;;;;;53.83;33.55;;;;;;;2.50;61.95;100118.81;10546382;28;20033;-83
2021/03/10 21:04:01;;;;;;;53.50;32.90;;;;;;;2.42;62.25;100109.28;10545024;28;20045;-81
2021/03/10 21:09:03;;;;;;;58.78;34.88;;;;;;;2.65;61.71;100096.34;10521601;28;20044;-81
2021/03/10 21:14:04;;;;;;;59.80;34.00;;;;;;;2.62;62.50;100086.00;10520507;28;20402;-82
2021/03/10 21:19:06;;;;;;;55.47;34.92;;;;;;;2.57;62.45;100086.00;10519544;28;20071;-81
2021/03/10 21:24:08;;;;;;;48.25;32.33;;;;;;;2.51;62.44;100081.63;10501247;28;20075;-81
2021/03/10 21:29:09;;;;;;;54.10;33.10;;;;;;;2.42;63.22;100060.88;10503296;28;20052;-82
2021/03/10 21:34:11;;;;;;;55.00;33.45;;;;;;;2.43;63.10;100061.72;10549097;28;20052;-80
2021/03/10 21:39:13;;;;;;;56.53;33.67;;;;;;;2.27;63.25;100055.66;10552637;28;20033;-82
2021/03/10 21:44:14;;;;;;;54.97;32.63;;;;;;;2.31;62.78;100051.34;10531830;28;20052;-82
2021/03/10 21:49:15;;;;;;;41.90;30.48;;;;;;;2.27;63.65;100051.34;10528754;28;20052;-82
2021/03/10 21:54:17;;;;;;;42.80;29.52;;;;;;;2.34;63.14;100040.97;10506276;28;20452;-82
2021/03/10 21:59:19;;;;;;;46.10;31.13;;;;;;;2.67;63.06;100033.22;10532666;28;20064;-81
2021/03/10 22:04:20;;;;;;;47.10;30.63;;;;;;;2.50;62.61;100028.00;10542543;28;20394;-82
2021/03/10 22:09:21;;;;;;;51.65;31.65;;;;;;;2.47;63.51;100021.94;10504705;28;20470;-82
2021/03/10 22:14:22;;;;;;;46.95;31.38;;;;;;;2.68;62.85;100006.41;10504413;28;20048;-82
2021/03/10 22:19:25;;;;;;;47.97;31.25;;;;;;;3.08;62.18;100005.50;10505756;28;20058;-81
2021/03/10 22:24:41;;;;;;;50.92;33.03;;;;;;;2.74;63.03;99995.13;10541447;28;20498;-81
2021/03/10 22:29:42;;;;;;;44.95;31.38;;;;;;;3.14;62.32;99976.91;10524115;28;20040;-80
2021/03/10 22:34:43;;;;;;;49.58;33.90;;;;;;;3.13;62.34;99980.38;10519927;28;20052;-80
2021/03/10 22:39:45;;;;;;;39.92;30.20;;;;;;;3.17;61.76;99977.75;10525677;28;20040;-80
2021/03/10 22:44:46;;;;;;;54.88;32.10;;;;;;;3.35;61.76;99963.84;10523560;28;20517;-81
2021/03/10 22:49:48;;;;;;;47.10;32.83;;;;;;;3.47;61.42;99960.34;10526718;28;20070;-81
2021/03/10 22:54:59;;;;;;;43.60;31.70;;;;;;;3.52;61.63;99945.59;10533748;28;20521;-81
2021/03/10 23:00:00;;;;;;;48.10;32.25;;;;;;;3.69;61.00;99937.72;10551473;28;20044;-80
2021/03/10 23:05:03;;;;;;;48.63;32.00;;;;;;;3.56;61.21;99930.84;10549821;28;20021;-81
2021/03/10 23:10:06;;;;;;;55.10;32.78;;;;;;;3.56;61.54;99917.84;10525871;28;20066;-80
2021/03/10 23:15:07;;;;;;;44.45;30.30;;;;;;;3.49;61.41;99907.47;10543104;28;20048;-78
2021/03/10 23:20:09;;;;;;;50.50;32.65;;;;;;;3.08;62.41;99901.59;10526458;28;20045;-80
2021/03/10 23:25:24;;;;;;;49.15;32.85;;;;;;;3.20;62.42;99892.03;10540742;28;20028;-81
2021/03/10 23:30:26;;;;;;;44.28;31.90;;;;;;;2.89;62.35;99890.44;10527452;28;20048;-81
2021/03/10 23:35:27;;;;;;;51.75;33.58;;;;;;;2.75;63.45;99877.50;10509987;28;20143;-82
2021/03/10 23:40:29;;;;;;;47.15;31.65;;;;;;;2.76;63.23;99861.91;10524799;28;20056;-81
2021/03/10 23:45:30;;;;;;;48.97;32.33;;;;;;;2.69;63.39;99852.38;10508185;28;20040;-80
2021/03/10 23:50:45;;;;;;;53.78;34.42;;;;;;;2.58;63.93;99846.38;10528619;28;20051;-80
2021/03/10 23:55:50;;;;;;;49.45;33.75;;;;;;;2.60;63.92;99843.78;10530360;28;20040;-82
